Flight Track Log - Related Links

Times and Time Zones

All times are in EDT time to prevent confusion due to time zone crossing. See the BJS542 flight status page for this flight to view local times or setup timezone preferences in your user account.

Time Position Orientation Groundspeed Altitude Reporting Facility
EDT Latitude Longitude Course Direction KTS MPH feet Rate Location/Type
Sun 01:27:55 PM 39.9167 -104.7000 323° Northwest 204 235 7,500  Level Denver TRACON
Sun 01:28:49 PM 39.9833 -104.7167 349° North 269 310 9,700 2,513 Climbing Denver TRACON
Sun 01:29:52 PM 40.0642 -104.7394 348° North 291 335 12,400 2,688 Climbing Denver Center
Sun 01:30:54 PM 40.1617 -104.7850 340° North 342 394 15,300 2,613 Climbing Denver Center
Sun 01:31:56 PM 40.2581 -104.8308 340° North 370 426 17,800 2,758 Climbing Denver Center
Sun 01:32:58 PM 40.3647 -104.8803 341° North 375 432 21,000 2,640 Climbing Denver Center
Sun 01:33:00 PM 40.4655 -104.7655 323° Northwest  Level FlightAware Approximate
Sun 01:34:01 PM 40.4553 -104.9247 340° North 348 400 23,300  Level Denver Center
Sun 01:35:03 PM 40.5572 -104.9731 340° North 363 418 24,900 1,452 Climbing Denver Center
Sun 01:36:05 PM 40.6639 -105.0250 340° North 409 471 26,300 1,597 Climbing Denver Center
Sun 01:37:07 PM 40.7725 -105.0758 340° North 409 471 28,200 1,839 Climbing Denver Center
Sun 01:38:09 PM 40.8631 -105.1786 319° Northwest 425 489 30,100 1,839 Climbing Denver Center
Sun 01:39:11 PM 40.9544 -105.2808 320° Northwest 430 495 32,000 1,984 Climbing Denver Center
Sun 01:40:13 PM 41.0744 -105.3742 330° Northwest 440 506 34,200 1,790 Climbing Denver Center
Sun 01:41:15 PM 41.1800 -105.4397 335° Northwest 439 505 35,700 1,403 Climbing Denver Center
Sun 01:42:17 PM 41.3053 -105.5189 335° Northwest 446 513 37,100 1,113 Climbing Denver Center
Sun 01:43:19 PM 41.4122 -105.5867 335° Northwest 445 512 38,000 435 Climbing Denver Center
Sun 01:44:21 PM 41.5028 -105.7139 314° West 427 491 38,000  Level Denver Center
Sun 01:45:24 PM 41.5700 -105.8350 307° West 422 486 38,000  Level Denver Center
Sun 01:46:26 PM 41.6461 -105.9781 305° West 422 486 38,000  Level Denver Center
Sun 01:47:28 PM 41.7106 -106.0969 306° West 416 479 38,000  Level Denver Center
Sun 01:48:30 PM 41.7861 -106.2364 306° West 414 476 38,000  Level Denver Center
Sun 01:49:32 PM 41.8508 -106.3600 305° West 420 483 38,000  Level Denver Center
Sun 01:50:34 PM 41.9178 -106.4869 305° West 431 496 38,000  Level Denver Center
Sun 01:51:36 PM 41.9997 -106.6394 306° West 434 499 38,000  Level Denver Center
Sun 01:52:38 PM 42.0664 -106.7653 306° West 433 498 38,000  Level Denver Center
Sun 01:53:40 PM 42.1428 -106.9092 306° West 426 490 38,000  Level Denver Center
Sun 01:54:42 PM 42.2047 -107.0308 305° West 417 480 38,000  Level Denver Center
Sun 01:55:44 PM 42.2808 -107.1761 305° West 423 487 38,000  Level Denver Center
Sun 01:56:47 PM 42.3436 -107.2992 305° West 419 482 38,000  Level Denver Center
Sun 01:57:33 PM 42.3978 -107.4053 305° West 421 484 38,000  Level Salt Lake Center
Sun 01:58:35 PM 42.4744 -107.5531 305° West 427 491 38,000  Level Salt Lake Center
Sun 01:59:37 PM 42.5378 -107.6772 305° West 424 488 38,000  Level Salt Lake Center
Sun 02:00:39 PM 42.6014 -107.8031 305° West 423 487 38,000  Level Salt Lake Center
Sun 02:01:41 PM 42.6756 -107.9511 304° West 424 488 38,000  Level Salt Lake Center
Sun 02:02:43 PM 42.7406 -108.0808 304° West 427 491 38,000  Level Salt Lake Center
Sun 02:03:45 PM 42.8156 -108.2317 304° West 431 496 38,000  Level Salt Lake Center
Sun 02:04:47 PM 42.8789 -108.3592 304° West 428 493 38,000  Level Salt Lake Center
Sun 02:05:49 PM 42.9533 -108.5092 304° West 429 494 38,000  Level Salt Lake Center
Sun 02:06:51 PM 43.0000 -108.6494 294° West 429 494 38,000  Level Salt Lake Center
Sun 02:07:54 PM 43.0411 -108.8222 288° West 430 495 38,000 -240 Level Salt Lake Center
Sun 02:08:56 PM 43.0769 -108.9706 288° West 430 495 37,500 -1,113 Descending Salt Lake Center
Sun 02:09:58 PM 43.1211 -109.1439 289° West 433 498 35,700 -2,565 Descending Salt Lake Center
Sun 02:11:00 PM 43.1600 -109.2978 289° West 443 510 32,200 -3,823 Descending Salt Lake Center
Sun 02:12:02 PM 43.2108 -109.4769 291° West 451 519 27,800 -3,968 Descending Salt Lake Center
Sun 02:13:04 PM 43.2575 -109.6258 293° West 448 516 24,000 -3,774 Descending Salt Lake Center
Sun 02:14:06 PM 43.3006 -109.7975 289° West 433 498 20,000 -2,855 Descending Salt Lake Center
Sun 02:15:08 PM 43.3606 -109.9161 305° West 401 461 18,100 -968 Descending Salt Lake Center
Sun 02:16:10 PM 43.3992 -110.0497 292° West 350 403 18,000 -48 Descending Salt Lake Center
Sun 02:17:12 PM 43.4514 -110.1447 307° West 340 391 18,000  Level Salt Lake Center
Sun 02:18:14 PM 43.5053 -110.2503 305° West 336 387 18,000  Level Salt Lake Center
Sun 02:19:16 PM 43.5653 -110.3794 303° West 334 384 18,000 -387 Level Salt Lake Center
Sun 02:20:18 PM 43.6392 -110.4564 323° Northwest 339 390 17,200 -1,355 Descending Salt Lake Center
Sun 02:21:20 PM 43.7222 -110.4775 350° North 335 386 15,200 -1,597 Descending Salt Lake Center
Sun 02:22:22 PM 43.8053 -110.4672 North 318 366 13,900 -1,355 Descending Salt Lake Center
Sun 02:23:24 PM 43.8197 -110.5608 282° West 274 315 12,400 -1,839 Descending Salt Lake Center
Sun 02:24:26 PM 43.7678 -110.6594 234° Southwest 269 310 10,100 -1,645 Descending Salt Lake Center
Sun 02:25:28 PM 43.7133 -110.6858 199° South 230 265 9,000 -1,113 Descending Salt Lake Center
Sun 02:26:30 PM 43.6733 -110.7056 200° South 187 215 7,800 -968 Descending Salt Lake Center
Sun 02:27:32 PM 43.6383 -110.7228 200° South 156 180 7,000 -774 Descending Salt Lake Center

Login

Don't have an account? Register now (free) for customized features, flight alerts, and more!